Indiahoma, Oklahoma
Current Conditions -  °F | °C
As of 4:53 PM on Tuesday 25 Nov 2014 (Local Time) from KLAW Reporting Station
Clear Clear  
Wind Chill: 52°   Ceiling: Unl
Heat Index: 52°   Visibility: 10mi
Dew Point: 28°   Wind: 6mph
Humidity: 40%   Direction: 210°SSW
Pressure: 30.13"   Gusts: NA
Location:  34.62°N, 98.75°W
Report Text: KLAW 252253Z 21005KT 10SM CLR 11/M02 A3013 RMK AO2 SLP206 T01111022
Loading
Personal Weather Stations






























Interactive Weather Map New forecast layout! Learn more

10-Day Weather Forecast

Advertisements
Track Severe Weather on mobile